createdAt,value
2018-05-15T12:58:01.889Z,25728.00
2018-05-15T12:59:01.807Z,26848.00
2018-05-15T13:00:55.132Z,27904.00
2018-05-15T13:01:55.039Z,26848.00
2018-05-15T13:03:49.361Z,24672.00
2018-05-15T13:04:49.279Z,24032.00
2018-05-15T13:06:42.631Z,22880.00
2018-05-15T13:07:42.531Z,21760.00
2018-05-15T13:09:37.448Z,19936.00
2018-05-15T13:10:36.759Z,20320.00
2018-05-15T13:12:31.075Z,20992.00
2018-05-15T13:13:30.993Z,20384.00
2018-05-15T13:15:25.305Z,18496.00
2018-05-15T13:16:25.227Z,18720.00
2018-05-15T13:18:19.574Z,19584.00
2018-05-15T13:19:19.453Z,20640.00
2018-05-15T13:21:13.879Z,20832.00
2018-05-15T13:22:13.685Z,21696.00
2018-05-15T13:24:08.018Z,22656.00
2018-05-15T13:25:07.916Z,24384.00
2018-05-15T13:27:02.248Z,26880.00
2018-05-15T13:28:02.161Z,26688.00
2018-05-15T13:29:56.607Z,26176.00
2018-05-15T13:30:56.386Z,21472.00
2018-05-15T13:32:49.706Z,19840.00
2018-05-15T13:33:49.629Z,18592.00
2018-05-15T13:35:42.960Z,17440.00
2018-05-15T13:36:42.883Z,18048.00
2018-05-15T13:38:36.219Z,21184.00
2018-05-15T13:39:36.123Z,25056.00
2018-05-15T13:41:30.564Z,25920.00
2018-05-15T13:42:30.366Z,24864.00
2018-05-15T13:44:24.678Z,23552.00
2018-05-15T13:45:24.578Z,22720.00
2018-05-15T13:47:18.915Z,21888.00
2018-05-15T13:48:18.818Z,20928.00
2018-05-15T13:50:13.142Z,19104.00
2018-05-15T13:51:13.048Z,16896.00
2018-05-15T13:53:06.387Z,13704.00
2018-05-15T13:54:06.298Z,12396.00
2018-05-15T13:55:59.626Z,12136.00
2018-05-15T13:56:59.547Z,12332.00
2018-05-15T13:58:52.870Z,10936.00
2018-05-15T13:59:52.786Z,9660.00
2018-05-15T14:01:46.109Z,9684.00
2018-05-15T14:02:46.032Z,9936.00
2018-05-15T14:04:40.352Z,14728.00
2018-05-15T14:05:40.260Z,16556.00
2018-05-15T14:07:34.580Z,19744.00
2018-05-15T14:08:34.495Z,20352.00
2018-05-15T14:10:27.820Z,20288.00
2018-05-15T14:11:27.736Z,15844.00
2018-05-15T14:13:22.192Z,14096.00
2018-05-15T14:14:21.971Z,12416.00
2018-05-15T14:16:15.320Z,10464.00
2018-05-15T14:17:15.260Z,10044.00
2018-05-15T14:18:15.170Z,10904.00
2018-05-15T14:19:15.162Z,11740.00
2018-05-15T14:20:15.086Z,11788.00
2018-05-15T14:21:15.020Z,10920.00
2018-05-15T14:22:14.958Z,9336.00
2018-05-15T14:23:14.910Z,7780.00
2018-05-15T14:24:14.876Z,6452.00
2018-05-15T14:25:14.806Z,5356.00
2018-05-15T14:26:14.779Z,4396.00
2018-05-15T14:27:14.692Z,3720.00
2018-05-15T14:28:14.639Z,3400.00
2018-05-15T14:29:14.592Z,3276.00
2018-05-15T14:30:14.534Z,2960.00
2018-05-15T14:31:14.519Z,2648.00
2018-05-15T14:32:14.427Z,2648.00
2018-05-15T14:33:14.368Z,3212.00
2018-05-15T14:34:14.326Z,3712.00
2018-05-15T14:35:14.266Z,3872.00
2018-05-15T14:36:14.230Z,3756.00
2018-05-15T14:37:21.827Z,3720.00
2018-05-15T14:39:17.099Z,3100.00
2018-05-15T14:40:16.045Z,2704.00
2018-05-15T14:42:02.695Z,1920.00
2018-05-15T14:43:03.319Z,1788.00
2018-05-15T14:45:04.596Z,1904.00
2018-05-15T14:46:05.648Z,3056.00
2018-05-15T14:48:00.213Z,5356.00
2018-05-15T14:48:51.078Z,5896.00
2018-05-15T14:50:45.402Z,4652.00
2018-05-15T14:51:45.301Z,3744.00
2018-05-15T14:53:39.637Z,2248.00
2018-05-15T14:54:39.541Z,1604.00
2018-05-15T14:56:32.852Z,964.00
2018-05-15T14:57:32.748Z,904.00
2018-05-15T14:59:27.061Z,808.00
2018-05-15T15:00:26.973Z,772.00
2018-05-15T15:02:21.271Z,772.00
2018-05-15T15:03:21.217Z,752.00
2018-05-15T15:05:14.514Z,688.00
2018-05-15T15:06:14.419Z,660.00
2018-05-15T15:08:07.755Z,628.00
2018-05-15T15:09:07.642Z,608.00
2018-05-15T15:11:01.989Z,576.00
2018-05-15T15:12:01.864Z,552.00
2018-05-15T15:13:01.806Z,552.00
2018-05-15T15:14:01.757Z,560.00
2018-05-15T15:15:01.698Z,556.00
2018-05-15T15:16:01.647Z,556.00
2018-05-15T15:17:01.588Z,552.00
2018-05-15T15:18:01.521Z,540.00
2018-05-15T15:19:01.470Z,524.00
2018-05-15T15:20:01.410Z,516.00
2018-05-15T15:21:01.348Z,508.00
2018-05-15T15:22:01.293Z,484.00
2018-05-15T15:23:01.234Z,504.00
2018-05-15T15:24:01.178Z,524.00
2018-05-15T15:25:01.119Z,540.00
2018-05-15T15:26:01.061Z,536.00
2018-05-15T15:27:00.999Z,492.00
2018-05-15T15:28:00.946Z,484.00
2018-05-15T15:29:00.884Z,488.00
2018-05-15T15:30:00.827Z,488.00
2018-05-15T15:31:00.769Z,496.00
2018-05-15T15:32:00.710Z,504.00
2018-05-15T15:33:00.650Z,520.00
2018-05-15T15:34:00.592Z,516.00
2018-05-15T15:35:00.535Z,516.00
2018-05-15T15:36:00.484Z,524.00
2018-05-15T15:37:00.417Z,528.00
2018-05-15T15:38:00.351Z,548.00
2018-05-15T15:39:00.336Z,564.00
2018-05-15T15:40:00.237Z,588.00
2018-05-15T15:41:00.177Z,604.00
2018-05-15T15:42:00.122Z,616.00
2018-05-15T15:43:00.066Z,644.00
2018-05-15T15:44:00.004Z,684.00
2018-05-15T15:44:59.940Z,728.00
2018-05-15T15:45:59.883Z,776.00
2018-05-15T15:46:59.825Z,820.00
2018-05-15T15:47:59.765Z,860.00
2018-05-15T15:48:59.714Z,912.00
2018-05-15T15:49:59.644Z,964.00
2018-05-15T15:50:59.585Z,1008.00
2018-05-15T15:51:59.529Z,1064.00
2018-05-15T15:52:59.468Z,1152.00
2018-05-15T15:53:59.406Z,1268.00
2018-05-15T15:54:59.351Z,1416.00
2018-05-15T15:55:59.383Z,1548.00
2018-05-15T15:56:59.228Z,1628.00
2018-05-15T15:57:59.170Z,1688.00
2018-05-15T15:58:59.115Z,1740.00
2018-05-15T15:59:59.055Z,1748.00
2018-05-15T16:00:58.992Z,1716.00
2018-05-15T16:01:58.932Z,1668.00
2018-05-15T16:02:58.875Z,1620.00
2018-05-15T16:03:58.831Z,1608.00
2018-05-15T16:04:58.760Z,1608.00
2018-05-15T16:05:58.697Z,1616.00
2018-05-15T16:06:58.638Z,1624.00
2018-05-15T16:07:58.577Z,1620.00
2018-05-15T16:08:58.528Z,1608.00
2018-05-15T16:09:58.554Z,1604.00
2018-05-15T16:10:58.402Z,1600.00
2018-05-15T16:11:58.345Z,1600.00
2018-05-15T16:12:58.279Z,1644.00
2018-05-15T16:13:58.220Z,1696.00
2018-05-15T16:14:58.162Z,1752.00
2018-05-15T16:15:58.112Z,1768.00
2018-05-15T16:16:58.046Z,1764.00
2018-05-15T16:17:57.977Z,1768.00
2018-05-15T16:18:57.922Z,1724.00
2018-05-15T16:19:57.861Z,1688.00
2018-05-15T16:20:57.804Z,1624.00
2018-05-15T16:21:57.746Z,1580.00
2018-05-15T16:22:57.691Z,1520.00
2018-05-15T16:23:57.632Z,1468.00
2018-05-15T16:24:57.567Z,1444.00
2018-05-15T16:25:57.507Z,1420.00
2018-05-15T16:26:57.452Z,1428.00
2018-05-15T16:27:57.544Z,1452.00
2018-05-15T16:28:57.325Z,1472.00
2018-05-15T16:29:57.269Z,1464.00
2018-05-15T16:30:57.220Z,1444.00
2018-05-15T16:31:57.144Z,1428.00
2018-05-15T16:32:57.092Z,1400.00
2018-05-15T16:33:57.047Z,1388.00
2018-05-15T16:34:56.971Z,1388.00
2018-05-15T16:35:56.916Z,1392.00
2018-05-15T16:36:56.848Z,1416.00
2018-05-15T16:37:56.787Z,1448.00
2018-05-15T16:38:56.728Z,1480.00
2018-05-15T16:39:56.670Z,1528.00
2018-05-15T16:40:56.607Z,1576.00
2018-05-15T16:41:56.558Z,1640.00
2018-05-15T16:42:56.491Z,1712.00
2018-05-15T16:43:56.451Z,1748.00
2018-05-15T16:44:56.371Z,1764.00
2018-05-15T16:45:56.310Z,1768.00
2018-05-15T16:46:56.266Z,1820.00
2018-05-15T16:47:56.191Z,1884.00
2018-05-15T16:48:56.137Z,2000.00
2018-05-15T16:49:56.077Z,2108.00
2018-05-15T16:50:56.012Z,2204.00
2018-05-15T16:51:55.954Z,2300.00
2018-05-15T16:52:55.894Z,2396.00
2018-05-15T16:53:55.837Z,2464.00
2018-05-15T16:54:55.774Z,2536.00
2018-05-15T16:55:55.714Z,2628.00
2018-05-15T16:56:55.655Z,2784.00
2018-05-15T16:57:55.600Z,2960.00
2018-05-15T16:58:55.533Z,3048.00
2018-05-15T16:59:55.495Z,3056.00
2018-05-15T17:00:55.415Z,2940.00
2018-05-15T17:01:55.364Z,2784.00
2018-05-15T17:02:55.298Z,2704.00
2018-05-15T17:03:55.237Z,2712.00
2018-05-15T17:04:55.178Z,2688.00
2018-05-15T17:05:55.118Z,2640.00
2018-05-15T17:06:55.057Z,2552.00
2018-05-15T17:07:55.007Z,2404.00
2018-05-15T17:08:54.936Z,2080.00
2018-05-15T17:09:54.874Z,1900.00
2018-05-15T17:10:54.816Z,1672.00
2018-05-15T17:11:54.755Z,1484.00
2018-05-15T17:12:54.696Z,1360.00
2018-05-15T17:13:54.638Z,1300.00
2018-05-15T17:14:54.583Z,1252.00
2018-05-15T17:15:54.524Z,1328.00
2018-05-15T17:16:54.458Z,1436.00
2018-05-15T17:17:54.405Z,1516.00
2018-05-15T17:18:54.345Z,1616.00
2018-05-15T17:19:54.286Z,1604.00
2018-05-15T17:20:54.223Z,1568.00
2018-05-15T17:21:54.163Z,1464.00
2018-05-15T17:22:54.095Z,1320.00
2018-05-15T17:23:54.037Z,1168.00
2018-05-15T17:24:53.975Z,1036.00
2018-05-15T17:25:53.931Z,944.00
2018-05-15T17:26:53.862Z,924.00
2018-05-15T17:27:53.799Z,1040.00
2018-05-15T17:28:53.742Z,1204.00
2018-05-15T17:29:53.678Z,1280.00
2018-05-15T17:30:54.560Z,1276.00
2018-05-15T17:31:53.558Z,1232.00
2018-05-15T17:32:53.496Z,1160.00
2018-05-15T17:33:53.438Z,1064.00
2018-05-15T17:34:53.377Z,960.00
2018-05-15T17:35:53.318Z,856.00
2018-05-15T17:36:53.256Z,760.00
2018-05-15T17:37:53.198Z,708.00
2018-05-15T17:38:53.137Z,652.00
2018-05-15T17:39:53.076Z,604.00
2018-05-15T17:40:53.095Z,572.00
2018-05-15T17:41:52.958Z,564.00
2018-05-15T17:42:52.898Z,544.00
2018-05-15T17:43:52.834Z,492.00
2018-05-15T17:44:52.774Z,472.00
2018-05-15T17:45:52.716Z,460.00
2018-05-15T17:46:52.663Z,420.00
2018-05-15T17:47:53.568Z,372.00
2018-05-15T17:48:52.532Z,320.00
2018-05-15T17:49:52.470Z,268.00
2018-05-15T17:50:52.410Z,232.00
2018-05-15T17:51:52.355Z,216.00
2018-05-15T17:52:52.392Z,204.00
2018-05-15T17:53:52.236Z,204.00
2018-05-15T17:54:52.171Z,208.00
2018-05-15T17:55:52.118Z,196.00
2018-05-15T17:56:52.054Z,200.00
2018-05-15T17:57:51.992Z,228.00
2018-05-15T17:58:51.929Z,264.00
2018-05-15T17:59:51.881Z,308.00
2018-05-15T18:00:51.814Z,348.00
2018-05-15T18:01:51.771Z,380.00
2018-05-15T18:02:51.688Z,404.00
2018-05-15T18:03:51.625Z,436.00
2018-05-15T18:04:51.562Z,456.00
2018-05-15T18:05:51.508Z,468.00
2018-05-15T18:06:51.444Z,476.00
2018-05-15T18:07:51.383Z,492.00
2018-05-15T18:08:51.329Z,516.00
2018-05-15T18:09:51.258Z,536.00
2018-05-15T18:10:51.195Z,564.00
2018-05-15T18:11:51.142Z,592.00
2018-05-15T18:12:51.071Z,608.00
2018-05-15T18:13:51.009Z,616.00
2018-05-15T18:14:50.955Z,620.00
2018-05-15T18:15:50.890Z,608.00
2018-05-15T18:16:57.601Z,576.00
2018-05-15T18:17:50.763Z,536.00
2018-05-15T18:18:50.745Z,492.00
2018-05-15T18:19:50.648Z,472.00
2018-05-15T18:20:50.579Z,448.00
2018-05-15T18:21:50.596Z,428.00
2018-05-15T18:22:50.454Z,408.00
2018-05-15T18:23:50.397Z,408.00
2018-05-15T18:24:50.339Z,420.00
2018-05-15T18:25:50.272Z,432.00
2018-05-15T18:26:50.211Z,444.00
2018-05-15T18:27:50.148Z,460.00
2018-05-15T18:28:50.089Z,464.00
2018-05-15T18:29:50.031Z,464.00
2018-05-15T18:30:49.966Z,468.00
2018-05-15T18:31:49.905Z,444.00
2018-05-15T18:32:49.854Z,416.00
2018-05-15T18:33:49.780Z,420.00
2018-05-15T18:34:49.723Z,448.00
2018-05-15T18:35:49.658Z,468.00
2018-05-15T18:36:49.594Z,496.00
2018-05-15T18:37:49.538Z,512.00
2018-05-15T18:38:49.474Z,520.00
2018-05-15T18:39:49.410Z,512.00
2018-05-15T18:40:49.352Z,500.00
2018-05-15T18:41:49.289Z,496.00
2018-05-15T18:42:49.233Z,480.00
2018-05-15T18:43:49.176Z,460.00
2018-05-15T18:44:49.104Z,428.00
2018-05-15T18:45:49.041Z,400.00
2018-05-15T18:46:48.981Z,376.00
2018-05-15T18:47:48.922Z,356.00
2018-05-15T18:48:48.855Z,336.00
2018-05-15T18:49:48.801Z,316.00
2018-05-15T18:50:48.764Z,300.00
2018-05-15T18:51:48.679Z,288.00
2018-05-15T18:52:48.614Z,268.00
2018-05-15T18:53:48.550Z,248.00
2018-05-15T18:54:48.488Z,228.00
2018-05-15T18:55:48.429Z,204.00
2018-05-15T18:56:48.367Z,176.00
2018-05-15T18:57:48.303Z,156.00
2018-05-15T18:58:48.241Z,148.00
2018-05-15T18:59:48.181Z,144.00
2018-05-15T19:00:48.119Z,136.00
2018-05-15T19:01:48.064Z,132.00
2018-05-15T19:02:47.996Z,124.00
2018-05-15T19:03:47.939Z,116.00
2018-05-15T19:04:47.875Z,104.00
2018-05-15T19:05:47.811Z,96.00
2018-05-15T19:06:47.821Z,88.00
2018-05-15T19:07:47.683Z,80.00
2018-05-15T19:08:47.635Z,76.00
2018-05-15T19:09:47.563Z,68.00
2018-05-15T19:10:47.504Z,64.00
2018-05-15T19:11:47.444Z,56.00
2018-05-15T19:12:47.385Z,52.00
2018-05-15T19:13:47.328Z,44.00
2018-05-15T19:14:47.258Z,40.00
2018-05-15T19:15:47.196Z,36.00
2018-05-15T19:16:47.134Z,36.00
2018-05-15T19:17:47.072Z,28.00
2018-05-15T19:18:47.019Z,24.00
2018-05-15T19:19:46.946Z,24.00
2018-05-15T19:20:46.889Z,24.00
2018-05-15T19:21:46.840Z,20.00
2018-05-15T19:22:46.768Z,20.00
2018-05-15T19:23:46.703Z,16.00
2018-05-15T19:24:46.646Z,12.00
2018-05-15T19:25:47.089Z,12.00
2018-05-15T19:26:46.534Z,12.00
2018-05-15T19:27:46.455Z,8.00
2018-05-15T19:28:46.390Z,8.00
2018-05-15T19:29:46.350Z,12.00
2018-05-15T19:30:46.268Z,8.00
2018-05-15T19:31:46.207Z,8.00
2018-05-15T19:32:46.149Z,4.00
2018-05-15T19:33:46.192Z,8.00
2018-05-15T19:34:46.242Z,8.00
2018-05-15T19:35:45.979Z,4.00
2018-05-15T19:36:45.901Z,4.00
2018-05-15T19:37:45.836Z,8.00
2018-05-15T19:38:45.774Z,4.00
2018-05-15T19:39:45.763Z,4.00
2018-05-15T19:40:45.649Z,4.00
2018-05-15T19:41:45.587Z,4.00
2018-05-15T19:42:45.557Z,4.00
2018-05-15T19:43:45.461Z,4.00
2018-05-15T19:44:45.585Z,4.00
2018-05-15T19:45:45.345Z,4.00
2018-05-15T19:46:45.474Z,0.00
2018-05-15T19:47:45.222Z,0.00
2018-05-15T19:48:45.155Z,0.00
2018-05-15T19:49:45.095Z,0.00
2018-05-15T19:50:45.029Z,0.00
2018-05-15T19:51:45.281Z,0.00
2018-05-15T19:52:44.903Z,0.00
2018-05-15T19:53:44.887Z,0.00
2018-05-15T19:54:44.788Z,0.00
2018-05-15T19:55:44.891Z,0.00
2018-05-15T19:56:44.835Z,0.00
2018-05-15T19:57:44.803Z,0.00
2018-05-15T19:58:45.162Z,4.00
2018-05-15T19:59:46.765Z,4.00
2018-05-15T20:00:44.493Z,4.00
2018-05-15T20:01:44.427Z,4.00
2018-05-15T20:02:44.483Z,4.00
2018-05-15T20:03:44.220Z,4.00
2018-05-15T20:04:44.376Z,4.00
2018-05-15T20:05:44.298Z,4.00
2018-05-15T20:06:44.043Z,4.00
2018-05-15T20:07:44.191Z,4.00
2018-05-15T20:08:43.917Z,4.00
2018-05-15T20:09:43.863Z,4.00
2018-05-15T20:10:43.802Z,0.00
2018-05-15T20:11:43.727Z,4.00
2018-05-15T20:12:43.671Z,4.00
2018-05-15T20:13:43.604Z,4.00
2018-05-15T20:14:43.580Z,0.00
2018-05-15T20:15:43.483Z,4.00
2018-05-15T20:16:51.065Z,4.00
2018-05-15T20:18:37.827Z,4.00
2018-05-15T20:19:37.628Z,4.00
2018-05-15T20:21:30.950Z,4.00
2018-05-15T20:22:38.473Z,4.00
2018-05-15T20:24:25.282Z,4.00
2018-05-15T20:25:32.654Z,4.00
2018-05-15T20:27:19.327Z,4.00
2018-05-15T20:28:19.216Z,4.00
2018-05-15T20:30:12.626Z,4.00
2018-05-15T20:31:12.435Z,4.00
2018-05-15T20:32:12.376Z,4.00
2018-05-15T20:33:19.959Z,4.00
2018-05-15T20:35:15.281Z,4.00
2018-05-15T20:36:14.178Z,0.00
2018-05-15T20:38:08.558Z,0.00
2018-05-15T20:39:00.827Z,0.00
2018-05-15T20:40:55.130Z,0.00
2018-05-15T20:41:55.043Z,0.00
2018-05-15T20:43:49.387Z,0.00
2018-05-15T20:44:49.241Z,0.00
2018-05-15T20:46:43.536Z,0.00
2018-05-15T20:47:43.442Z,0.00
2018-05-15T20:49:37.810Z,0.00
2018-05-15T20:50:37.683Z,0.00
2018-05-15T20:51:37.604Z,0.00
2018-05-15T20:52:37.526Z,0.00
2018-05-15T20:53:37.466Z,0.00
2018-05-15T20:54:37.401Z,0.00
2018-05-15T20:55:37.341Z,0.00
2018-05-15T20:56:37.287Z,0.00
2018-05-15T20:57:37.218Z,0.00
2018-05-15T20:58:37.151Z,0.00
2018-05-15T20:59:37.090Z,0.00
2018-05-15T21:00:37.091Z,0.00
2018-05-15T21:01:36.967Z,0.00
2018-05-15T21:02:36.907Z,0.00
2018-05-15T21:03:36.843Z,0.00
2018-05-15T21:04:36.784Z,0.00
2018-05-15T21:05:36.727Z,0.00
2018-05-15T21:06:36.653Z,0.00
2018-05-15T21:07:36.590Z,0.00
2018-05-15T21:08:36.534Z,0.00
2018-05-15T21:09:36.468Z,0.00
2018-05-15T21:10:36.405Z,0.00
2018-05-15T21:11:36.341Z,0.00
2018-05-15T21:12:36.279Z,0.00
2018-05-15T21:13:36.219Z,0.00
2018-05-15T21:14:36.156Z,0.00
2018-05-15T21:15:36.095Z,0.00
2018-05-15T21:16:36.033Z,0.00
2018-05-15T21:17:35.967Z,0.00
2018-05-15T21:18:35.907Z,0.00
2018-05-15T21:19:35.842Z,0.00
2018-05-15T21:20:35.781Z,0.00
2018-05-15T21:21:35.721Z,0.00
2018-05-15T21:22:35.657Z,0.00
2018-05-15T21:23:35.596Z,0.00
2018-05-15T21:24:35.528Z,0.00
2018-05-15T21:25:35.481Z,0.00
2018-05-15T21:26:35.403Z,0.00
2018-05-15T21:27:35.356Z,0.00
2018-05-15T21:28:35.283Z,0.00
2018-05-15T21:29:35.222Z,0.00
2018-05-15T21:30:35.162Z,0.00
2018-05-15T21:31:35.093Z,0.00
2018-05-15T21:32:35.030Z,0.00
2018-05-15T21:33:34.968Z,0.00
2018-05-15T21:34:34.908Z,0.00
2018-05-15T21:35:34.846Z,0.00
2018-05-15T21:36:34.782Z,0.00
2018-05-15T21:37:34.719Z,0.00
2018-05-15T21:38:34.657Z,0.00
2018-05-15T21:39:34.595Z,0.00
2018-05-15T21:40:34.532Z,0.00
2018-05-15T21:41:34.471Z,0.00
2018-05-15T21:42:34.410Z,0.00
2018-05-15T21:43:34.343Z,0.00
2018-05-15T21:44:34.279Z,0.00
2018-05-15T21:45:34.218Z,0.00
2018-05-15T21:46:34.158Z,0.00
2018-05-15T21:47:34.097Z,0.00
2018-05-15T21:48:34.032Z,0.00
2018-05-15T21:49:33.971Z,0.00
2018-05-15T21:50:33.908Z,0.00
2018-05-15T21:51:33.843Z,0.00
2018-05-15T21:52:33.787Z,0.00
2018-05-15T21:53:33.720Z,0.00
2018-05-15T21:54:33.667Z,0.00
2018-05-15T21:55:33.592Z,0.00
2018-05-15T21:56:33.532Z,0.00
2018-05-15T21:57:33.468Z,0.00
2018-05-15T21:58:33.406Z,0.00
2018-05-15T21:59:33.342Z,0.00
2018-05-15T22:00:33.282Z,0.00
2018-05-15T22:01:33.220Z,0.00
2018-05-15T22:02:33.158Z,0.00
2018-05-15T22:03:33.098Z,0.00
2018-05-15T22:04:33.037Z,0.00
2018-05-15T22:05:32.968Z,0.00
2018-05-15T22:06:32.905Z,0.00
2018-05-15T22:07:32.843Z,0.00
2018-05-15T22:08:32.781Z,0.00
2018-05-15T22:09:32.718Z,0.00
2018-05-15T22:10:32.657Z,0.00
2018-05-15T22:11:32.595Z,0.00
2018-05-15T22:12:32.531Z,0.00
2018-05-15T22:13:32.468Z,0.00
2018-05-15T22:14:32.411Z,0.00
2018-05-15T22:15:32.343Z,0.00
2018-05-15T22:16:32.277Z,0.00
2018-05-15T22:17:32.227Z,0.00
2018-05-15T22:18:32.152Z,0.00
2018-05-15T22:19:32.095Z,0.00
2018-05-15T22:20:32.060Z,0.00
2018-05-15T22:21:31.968Z,0.00
2018-05-15T22:22:31.909Z,0.00
2018-05-15T22:23:31.839Z,0.00
2018-05-15T22:24:31.780Z,0.00
2018-05-15T22:25:31.718Z,0.00
2018-05-15T22:26:31.656Z,0.00
2018-05-15T22:27:31.593Z,0.00
2018-05-15T22:28:31.529Z,0.00
2018-05-15T22:29:31.465Z,0.00
2018-05-15T22:30:31.404Z,0.00
2018-05-15T22:31:31.344Z,0.00
2018-05-15T22:32:31.290Z,0.00
2018-05-15T22:33:31.220Z,0.00
2018-05-15T22:34:31.157Z,0.00
2018-05-15T22:35:31.089Z,0.00
2018-05-15T22:36:31.031Z,0.00
2018-05-15T22:37:30.964Z,0.00
2018-05-15T22:38:30.898Z,0.00
2018-05-15T22:39:30.845Z,0.00
2018-05-15T22:40:30.778Z,0.00
2018-05-15T22:41:30.726Z,0.00
2018-05-15T22:42:30.650Z,0.00
2018-05-15T22:43:30.591Z,0.00
2018-05-15T22:44:30.526Z,0.00
2018-05-15T22:45:30.462Z,0.00
2018-05-15T22:46:30.401Z,0.00
2018-05-15T22:47:30.339Z,0.00
2018-05-15T22:48:30.273Z,0.00
2018-05-15T22:49:30.211Z,0.00
2018-05-15T22:50:30.149Z,0.00
2018-05-15T22:51:30.093Z,0.00
2018-05-15T22:52:30.024Z,0.00
2018-05-15T22:53:29.964Z,0.00
2018-05-15T22:54:29.905Z,0.00
2018-05-15T22:55:29.836Z,0.00
2018-05-15T22:56:29.776Z,0.00
2018-05-15T22:57:29.712Z,0.00
2018-05-15T22:58:29.656Z,0.00
2018-05-15T22:59:29.585Z,0.00
2018-05-15T23:00:29.520Z,0.00
2018-05-15T23:01:29.460Z,0.00
2018-05-15T23:02:29.394Z,0.00
2018-05-15T23:03:29.338Z,0.00
2018-05-15T23:04:29.274Z,0.00
2018-05-15T23:05:29.217Z,0.00
2018-05-15T23:06:29.182Z,0.00
2018-05-15T23:07:29.083Z,0.00
2018-05-15T23:08:29.021Z,0.00
2018-05-15T23:09:28.958Z,0.00
2018-05-15T23:10:28.899Z,0.00
2018-05-15T23:11:28.835Z,0.00
2018-05-15T23:12:28.772Z,0.00
2018-05-15T23:13:28.708Z,0.00
2018-05-15T23:14:28.645Z,0.00
2018-05-15T23:15:28.585Z,0.00
2018-05-15T23:16:28.522Z,0.00
2018-05-15T23:17:28.465Z,0.00
2018-05-15T23:18:28.400Z,0.00
2018-05-15T23:19:28.335Z,0.00
2018-05-15T23:20:28.275Z,0.00
2018-05-15T23:21:28.215Z,0.00
2018-05-15T23:22:28.149Z,0.00
2018-05-15T23:23:28.083Z,0.00
2018-05-15T23:24:28.022Z,0.00
2018-05-15T23:25:27.960Z,0.00
2018-05-15T23:26:27.893Z,0.00
2018-05-15T23:27:27.836Z,0.00
2018-05-15T23:28:27.775Z,0.00
2018-05-15T23:29:27.708Z,0.00
2018-05-15T23:30:27.652Z,0.00
2018-05-15T23:31:27.584Z,0.00
2018-05-15T23:32:27.523Z,0.00
2018-05-15T23:33:27.460Z,0.00
2018-05-15T23:34:27.400Z,0.00
2018-05-15T23:35:27.335Z,0.00
2018-05-15T23:36:27.273Z,0.00
2018-05-15T23:37:27.211Z,0.00
2018-05-15T23:38:27.147Z,0.00
2018-05-15T23:39:27.089Z,0.00
2018-05-15T23:40:27.024Z,0.00
2018-05-15T23:41:26.960Z,0.00
2018-05-15T23:42:26.901Z,0.00
2018-05-15T23:43:26.834Z,0.00
2018-05-15T23:44:26.773Z,0.00
2018-05-15T23:45:26.720Z,0.00
2018-05-15T23:46:26.651Z,0.00
2018-05-15T23:47:26.584Z,0.00
2018-05-15T23:48:26.523Z,0.00
2018-05-15T23:49:26.465Z,0.00
2018-05-15T23:50:26.424Z,0.00
2018-05-15T23:51:26.335Z,0.00
2018-05-15T23:52:26.276Z,0.00
2018-05-15T23:53:26.213Z,0.00
2018-05-15T23:54:26.155Z,0.00
2018-05-15T23:55:26.094Z,0.00
2018-05-15T23:56:26.027Z,0.00
2018-05-15T23:57:25.962Z,0.00
2018-05-15T23:58:25.900Z,0.00
2018-05-15T23:59:25.841Z,0.00
